VTD267 UWSG-XWSD
Flight info
| Callsign | VTD267 |
|---|---|
| Flight time | N/A |
| Altitude | 2000 |
| Route | RA/A020 |
| Aircraft | C172/L-SDFGY/C |
Departure
| Time | 2026-04-26 10:35 |
|---|---|
| Airport | Gagarin International Airport (UWSG) |
Arrival
| Time | N/A |
|---|---|
| Airport | XWSD |
| Time | Latitude | Longitude | Altitude | Speed | Heading |
|---|---|---|---|---|---|
| 2026-04-26 10:09 | 51.71559 | 46.17164 | 106 ft | 0 kts | 181° |
| 2026-04-26 10:27 | 51.71557 | 46.17164 | 106 ft | 1 kts | 181° |
| 2026-04-26 10:27 | 51.71532 | 46.17170 | 106 ft | 7 kts | 139° |
| 2026-04-26 10:28 | 51.71521 | 46.17251 | 106 ft | 8 kts | 90° |
| 2026-04-26 10:28 | 51.71518 | 46.17377 | 106 ft | 10 kts | 100° |
| 2026-04-26 10:28 | 51.71444 | 46.17418 | 106 ft | 11 kts | 184° |
| 2026-04-26 10:28 | 51.71377 | 46.17415 | 106 ft | 11 kts | 186° |
| 2026-04-26 10:29 | 51.71368 | 46.17413 | 106 ft | 0 kts | 184° |
| 2026-04-26 10:32 | 51.71347 | 46.17412 | 105 ft | 8 kts | 180° |
| 2026-04-26 10:32 | 51.71271 | 46.17433 | 105 ft | 14 kts | 129° |
| 2026-04-26 10:32 | 51.71252 | 46.17619 | 104 ft | 21 kts | 92° |
| 2026-04-26 10:32 | 51.71246 | 46.17890 | 105 ft | 27 kts | 93° |
| 2026-04-26 10:33 | 51.71239 | 46.18208 | 103 ft | 29 kts | 93° |
| 2026-04-26 10:33 | 51.71231 | 46.18543 | 103 ft | 31 kts | 92° |
| 2026-04-26 10:33 | 51.71224 | 46.18882 | 106 ft | 30 kts | 93° |
| 2026-04-26 10:33 | 51.71212 | 46.19145 | 107 ft | 14 kts | 99° |
| 2026-04-26 10:34 | 51.71217 | 46.19102 | 106 ft | 0 kts | 272° |
| 2026-04-26 10:34 | 51.71220 | 46.18971 | 106 ft | 32 kts | 270° |
| 2026-04-26 10:34 | 51.71240 | 46.18372 | 213 ft | 61 kts | 266° |
| 2026-04-26 10:34 | 51.71293 | 46.17650 | 401 ft | 65 kts | 266° |
| 2026-04-26 10:35 | 51.71333 | 46.16896 | 605 ft | 75 kts | 265° |
| 2026-04-26 10:35 | 51.71343 | 46.16007 | 907 ft | 82 kts | 258° |
| 2026-04-26 10:35 | 51.71301 | 46.15090 | 1181 ft | 81 kts | 262° |
| 2026-04-26 10:35 | 51.71292 | 46.14180 | 1460 ft | 78 kts | 267° |
| 2026-04-26 10:36 | 51.71336 | 46.13304 | 1646 ft | 80 kts | 270° |
| 2026-04-26 10:36 | 51.71399 | 46.12406 | 1700 ft | 82 kts | 272° |
| 2026-04-26 10:36 | 51.71494 | 46.11474 | 1727 ft | 84 kts | 274° |
| 2026-04-26 10:36 | 51.71571 | 46.10538 | 1791 ft | 85 kts | 272° |
| 2026-04-26 10:37 | 51.71586 | 46.09604 | 1895 ft | 82 kts | 272° |
| 2026-04-26 10:37 | 51.71863 | 46.08781 | 1936 ft | 95 kts | 315° |
| 2026-04-26 10:37 | 51.72527 | 46.08473 | 2033 ft | 104 kts | 339° |
| 2026-04-26 10:37 | 51.73293 | 46.08513 | 2000 ft | 114 kts | 355° |
| 2026-04-26 10:38 | 51.74080 | 46.08721 | 1997 ft | 115 kts | 356° |
| 2026-04-26 10:38 | 51.74852 | 46.08737 | 1973 ft | 107 kts | 336° |
| 2026-04-26 10:38 | 51.75571 | 46.08420 | 1944 ft | 107 kts | 333° |
| 2026-04-26 10:38 | 51.76328 | 46.08269 | 1859 ft | 114 kts | 352° |
| 2026-04-26 10:39 | 51.77074 | 46.08595 | 1858 ft | 114 kts | 13° |
| 2026-04-26 10:39 | 51.77805 | 46.09074 | 1964 ft | 115 kts | 9° |
| 2026-04-26 10:39 | 51.78486 | 46.09830 | 2006 ft | 123 kts | 46° |
| 2026-04-26 10:39 | 51.78852 | 46.11136 | 2008 ft | 130 kts | 79° |
| 2026-04-26 10:40 | 51.78849 | 46.12600 | 1994 ft | 129 kts | 99° |
| 2026-04-26 10:40 | 51.78757 | 46.14022 | 2022 ft | 129 kts | 99° |
| 2026-04-26 10:40 | 51.78662 | 46.15467 | 1999 ft | 129 kts | 94° |
| 2026-04-26 10:40 | 51.78611 | 46.16918 | 2041 ft | 129 kts | 92° |
| 2026-04-26 10:41 | 51.78549 | 46.18363 | 1989 ft | 130 kts | 99° |
| 2026-04-26 10:41 | 51.78449 | 46.19823 | 2011 ft | 133 kts | 101° |
| 2026-04-26 10:41 | 51.78307 | 46.21317 | 2001 ft | 136 kts | 103° |
| 2026-04-26 10:41 | 51.78166 | 46.22802 | 2030 ft | 132 kts | 98° |
| 2026-04-26 10:42 | 51.78002 | 46.24282 | 1945 ft | 134 kts | 112° |
| 2026-04-26 10:42 | 51.77744 | 46.25155 | 1933 ft | 128 kts | 134° |
| 2026-04-26 10:42 | 51.76858 | 46.26247 | 1921 ft | 117 kts | 165° |
| 2026-04-26 10:42 | 51.76125 | 46.26514 | 1967 ft | 104 kts | 187° |
| 2026-04-26 10:43 | 51.75401 | 46.26572 | 1943 ft | 106 kts | 191° |
| 2026-04-26 10:43 | 51.74679 | 46.26619 | 1983 ft | 103 kts | 189° |
| 2026-04-26 10:43 | 51.73960 | 46.26688 | 1983 ft | 104 kts | 188° |
| 2026-04-26 10:43 | 51.73242 | 46.26757 | 2012 ft | 102 kts | 189° |
| 2026-04-26 10:44 | 51.72516 | 46.26830 | 1958 ft | 106 kts | 189° |
| 2026-04-26 10:44 | 51.71787 | 46.26868 | 1963 ft | 103 kts | 192° |
| 2026-04-26 10:44 | 51.71061 | 46.26823 | 1941 ft | 105 kts | 195° |
| 2026-04-26 10:44 | 51.70351 | 46.26768 | 1979 ft | 102 kts | 196° |
| 2026-04-26 10:45 | 51.69644 | 46.26702 | 2001 ft | 101 kts | 197° |
| 2026-04-26 10:45 | 51.68958 | 46.26556 | 2025 ft | 98 kts | 201° |
| 2026-04-26 10:45 | 51.68277 | 46.26390 | 2011 ft | 100 kts | 200° |
| 2026-04-26 10:45 | 51.67591 | 46.26250 | 2020 ft | 98 kts | 199° |
| 2026-04-26 10:46 | 51.66932 | 46.26014 | 2014 ft | 97 kts | 207° |
| 2026-04-26 10:46 | 51.66301 | 46.25643 | 2021 ft | 95 kts | 210° |
| 2026-04-26 10:46 | 51.65883 | 46.25428 | 2032 ft | 95 kts | 210° |
| 2026-04-26 10:46 | 51.65230 | 46.25143 | 2001 ft | 98 kts | 206° |
| 2026-04-26 10:47 | 51.64575 | 46.24841 | 1959 ft | 99 kts | 209° |
| 2026-04-26 10:47 | 51.63894 | 46.24500 | 1889 ft | 102 kts | 210° |
| 2026-04-26 10:47 | 51.63248 | 46.24142 | 1916 ft | 97 kts | 213° |
| 2026-04-26 10:47 | 51.62620 | 46.23739 | 1880 ft | 99 kts | 212° |
| 2026-04-26 10:48 | 51.62004 | 46.23340 | 1936 ft | 89 kts | 221° |
| 2026-04-26 10:48 | 51.61475 | 46.22887 | 2011 ft | 84 kts | 222° |
| 2026-04-26 10:48 | 51.60973 | 46.22485 | 2077 ft | 79 kts | 220° |
| 2026-04-26 10:48 | 51.60485 | 46.22036 | 2033 ft | 87 kts | 225° |
| 2026-04-26 10:49 | 51.59954 | 46.21475 | 1976 ft | 92 kts | 226° |
| 2026-04-26 10:49 | 51.59564 | 46.20730 | 1914 ft | 88 kts | 255° |
| 2026-04-26 10:49 | 51.59660 | 46.19802 | 1838 ft | 95 kts | 297° |
| 2026-04-26 10:49 | 51.60116 | 46.18997 | 1756 ft | 96 kts | 309° |
| 2026-04-26 10:50 | 51.60630 | 46.18350 | 1772 ft | 91 kts | 309° |
| 2026-04-26 10:50 | 51.61110 | 46.17708 | 1727 ft | 89 kts | 308° |
| 2026-04-26 10:50 | 51.61572 | 46.17049 | 1698 ft | 88 kts | 307° |
| 2026-04-26 10:50 | 51.62027 | 46.16399 | 1639 ft | 89 kts | 309° |
| 2026-04-26 10:51 | 51.62507 | 46.15758 | 1595 ft | 90 kts | 310° |
| 2026-04-26 10:51 | 51.63382 | 46.14440 | 1528 ft | 86 kts | 302° |
| 2026-04-26 10:51 | 51.63759 | 46.13695 | 1480 ft | 84 kts | 300° |
| 2026-04-26 10:52 | 51.64053 | 46.12896 | 1451 ft | 84 kts | 289° |
| 2026-04-26 10:52 | 51.64303 | 46.11999 | 1416 ft | 89 kts | 293° |
| 2026-04-26 10:52 | 51.64499 | 46.11067 | 1352 ft | 87 kts | 278° |
| 2026-04-26 10:52 | 51.64577 | 46.10138 | 1057 ft | 80 kts | 266° |
| 2026-04-26 10:53 | 51.64581 | 46.09330 | 859 ft | 67 kts | 262° |
| 2026-04-26 10:53 | 51.64550 | 46.08552 | 716 ft | 72 kts | 254° |
| 2026-04-26 10:53 | 51.64533 | 46.07742 | 542 ft | 68 kts | 252° |
| 2026-04-26 10:54 | 51.64502 | 46.06520 | 475 ft | 58 kts | 263° |
| 2026-04-26 10:54 | 51.64549 | 46.05803 | 679 ft | 67 kts | 264° |
| 2026-04-26 10:54 | 51.64619 | 46.05081 | 996 ft | 64 kts | 270° |
| 2026-04-26 10:54 | 51.64687 | 46.04313 | 1152 ft | 73 kts | 268° |
| 2026-04-26 10:55 | 51.64665 | 46.03505 | 1388 ft | 73 kts | 266° |
| 2026-04-26 10:55 | 51.64473 | 46.02694 | 1473 ft | 88 kts | 236° |
| 2026-04-26 10:55 | 51.63820 | 46.02460 | 1647 ft | 109 kts | 185° |
| 2026-04-26 10:55 | 51.63031 | 46.02693 | 1533 ft | 115 kts | 187° |
| 2026-04-26 10:56 | 51.62249 | 46.02856 | 1525 ft | 116 kts | 177° |
| 2026-04-26 10:56 | 51.61635 | 46.03782 | 1470 ft | 134 kts | 110° |
| 2026-04-26 10:56 | 51.61525 | 46.05252 | 1449 ft | 132 kts | 95° |
| 2026-04-26 10:56 | 51.61433 | 46.06717 | 1442 ft | 130 kts | 98° |
| 2026-04-26 10:57 | 51.61381 | 46.08153 | 1484 ft | 129 kts | 88° |
| 2026-04-26 10:57 | 51.61347 | 46.09566 | 1509 ft | 129 kts | 94° |
| 2026-04-26 10:57 | 51.61300 | 46.11010 | 1455 ft | 129 kts | 80° |
| 2026-04-26 10:57 | 51.61813 | 46.11977 | 1495 ft | 107 kts | 3° |
| 2026-04-26 10:58 | 51.62520 | 46.12171 | 1542 ft | 100 kts | 351° |
| 2026-04-26 10:58 | 51.63223 | 46.12279 | 1565 ft | 104 kts | 351° |
| 2026-04-26 10:58 | 51.63951 | 46.12297 | 1507 ft | 101 kts | 348° |
| 2026-04-26 10:58 | 51.64507 | 46.11904 | 1407 ft | 89 kts | 293° |
| 2026-04-26 10:59 | 51.64577 | 46.10938 | 1142 ft | 83 kts | 272° |
| 2026-04-26 10:59 | 51.64597 | 46.10118 | 938 ft | 66 kts | 264° |
| 2026-04-26 10:59 | 51.64573 | 46.09385 | 765 ft | 64 kts | 255° |
| 2026-04-26 10:59 | 51.64549 | 46.08632 | 659 ft | 68 kts | 256° |
| 2026-04-26 11:00 | 51.64533 | 46.07860 | 549 ft | 70 kts | 255° |
| 2026-04-26 11:00 | 51.64519 | 46.07138 | 464 ft | 54 kts | 256° |
| 2026-04-26 11:00 | 51.64506 | 46.06593 | 476 ft | 59 kts | 261° |
| 2026-04-26 11:00 | 51.64530 | 46.05873 | 674 ft | 67 kts | 267° |
| 2026-04-26 11:01 | 51.64626 | 46.05104 | 934 ft | 69 kts | 269° |
| 2026-04-26 11:01 | 51.64630 | 46.04381 | 1191 ft | 67 kts | 268° |
| 2026-04-26 11:01 | 51.64602 | 46.03635 | 1465 ft | 66 kts | 270° |
| 2026-04-26 11:01 | 51.64559 | 46.02823 | 1543 ft | 76 kts | 272° |
| 2026-04-26 11:02 | 51.64548 | 46.01948 | 1637 ft | 79 kts | 274° |
| 2026-04-26 11:02 | 51.64177 | 46.01249 | 1582 ft | 111 kts | 204° |
| 2026-04-26 11:02 | 51.63390 | 46.01463 | 1648 ft | 113 kts | 178° |
| 2026-04-26 11:02 | 51.62644 | 46.01721 | 1598 ft | 118 kts | 169° |
| 2026-04-26 11:03 | 51.62090 | 46.02788 | 1547 ft | 135 kts | 109° |
| 2026-04-26 11:03 | 51.61958 | 46.04267 | 1530 ft | 130 kts | 93° |
| 2026-04-26 11:03 | 51.61899 | 46.05719 | 1488 ft | 131 kts | 93° |
| 2026-04-26 11:03 | 51.61855 | 46.06685 | 1507 ft | 128 kts | 92° |
| 2026-04-26 11:04 | 51.61799 | 46.08585 | 1567 ft | 125 kts | 89° |
| 2026-04-26 11:04 | 51.61787 | 46.10009 | 1505 ft | 131 kts | 91° |
| 2026-04-26 11:04 | 51.61781 | 46.11463 | 1479 ft | 130 kts | 90° |
| 2026-04-26 11:04 | 51.61785 | 46.12922 | 1513 ft | 129 kts | 81° |
| 2026-04-26 11:05 | 51.62181 | 46.14167 | 1360 ft | 123 kts | 30° |
| 2026-04-26 11:05 | 51.62855 | 46.14624 | 1240 ft | 95 kts | 350° |
| 2026-04-26 11:05 | 51.63506 | 46.14654 | 1016 ft | 92 kts | 343° |
| 2026-04-26 11:05 | 51.64053 | 46.14423 | 1015 ft | 73 kts | 305° |
| 2026-04-26 11:06 | 51.64345 | 46.13792 | 970 ft | 71 kts | 288° |
| 2026-04-26 11:06 | 51.64477 | 46.13121 | 1031 ft | 59 kts | 269° |
| 2026-04-26 11:06 | 51.64521 | 46.12453 | 1024 ft | 64 kts | 266° |
| 2026-04-26 11:06 | 51.64542 | 46.11699 | 1057 ft | 70 kts | 266° |
| 2026-04-26 11:07 | 51.64547 | 46.10902 | 1047 ft | 72 kts | 263° |
| 2026-04-26 11:07 | 51.64571 | 46.10092 | 896 ft | 69 kts | 259° |
| 2026-04-26 11:07 | 51.64552 | 46.09359 | 778 ft | 62 kts | 260° |
| 2026-04-26 11:07 | 51.64547 | 46.08664 | 660 ft | 62 kts | 254° |
| 2026-04-26 11:08 | 51.64528 | 46.07940 | 561 ft | 67 kts | 259° |
| 2026-04-26 11:08 | 51.64516 | 46.07232 | 463 ft | 57 kts | 257° |
| 2026-04-26 11:08 | 51.64504 | 46.06621 | 508 ft | 62 kts | 264° |
| 2026-04-26 11:08 | 51.64547 | 46.05879 | 724 ft | 68 kts | 268° |
| 2026-04-26 11:09 | 51.64611 | 46.05099 | 957 ft | 80 kts | 266° |
| 2026-04-26 11:09 | 51.64625 | 46.04168 | 1230 ft | 75 kts | 269° |
| 2026-04-26 11:09 | 51.64623 | 46.03371 | 1459 ft | 75 kts | 272° |
| 2026-04-26 11:09 | 51.64608 | 46.02461 | 1499 ft | 86 kts | 272° |
| 2026-04-26 11:10 | 51.64573 | 46.01531 | 1548 ft | 87 kts | 253° |
| 2026-04-26 11:10 | 51.63956 | 46.01112 | 1510 ft | 116 kts | 183° |
| 2026-04-26 11:10 | 51.63207 | 46.01200 | 1578 ft | 109 kts | 194° |
| 2026-04-26 11:10 | 51.62476 | 46.01652 | 1533 ft | 135 kts | 133° |
| 2026-04-26 11:11 | 51.62199 | 46.03094 | 1527 ft | 136 kts | 97° |
| 2026-04-26 11:11 | 51.62054 | 46.04592 | 1530 ft | 138 kts | 98° |
| 2026-04-26 11:11 | 51.61930 | 46.06101 | 1511 ft | 135 kts | 98° |
| 2026-04-26 11:11 | 51.61818 | 46.07619 | 1498 ft | 139 kts | 97° |
| 2026-04-26 11:12 | 51.61745 | 46.09181 | 1507 ft | 138 kts | 93° |
| 2026-04-26 11:12 | 51.61693 | 46.10712 | 1491 ft | 138 kts | 91° |
| 2026-04-26 11:12 | 51.61649 | 46.12255 | 1434 ft | 136 kts | 91° |
| 2026-04-26 11:12 | 51.61630 | 46.13758 | 1408 ft | 134 kts | 83° |
| 2026-04-26 11:13 | 51.62052 | 46.15046 | 1306 ft | 127 kts | 29° |
| 2026-04-26 11:13 | 51.62846 | 46.15470 | 1105 ft | 118 kts | 356° |
| 2026-04-26 11:13 | 51.63660 | 46.15561 | 988 ft | 114 kts | 355° |
| 2026-04-26 11:13 | 51.64413 | 46.15394 | 893 ft | 109 kts | 324° |
| 2026-04-26 11:14 | 51.64744 | 46.14497 | 890 ft | 92 kts | 260° |
| 2026-04-26 11:14 | 51.64653 | 46.13519 | 920 ft | 87 kts | 253° |
| 2026-04-26 11:14 | 51.64614 | 46.12573 | 983 ft | 81 kts | 264° |
| 2026-04-26 11:14 | 51.64626 | 46.11974 | 955 ft | 82 kts | 262° |
| 2026-04-26 11:15 | 51.64589 | 46.10719 | 851 ft | 82 kts | 257° |
| 2026-04-26 11:15 | 51.64572 | 46.09881 | 806 ft | 65 kts | 254° |
| 2026-04-26 11:15 | 51.64563 | 46.09174 | 733 ft | 62 kts | 254° |
| 2026-04-26 11:15 | 51.64538 | 46.08455 | 630 ft | 70 kts | 254° |
| 2026-04-26 11:16 | 51.64526 | 46.07694 | 509 ft | 66 kts | 254° |
| 2026-04-26 11:16 | 51.64513 | 46.07031 | 462 ft | 50 kts | 264° |
| 2026-04-26 11:16 | 51.64504 | 46.06420 | 501 ft | 67 kts | 272° |
| 2026-04-26 11:16 | 51.64569 | 46.05693 | 759 ft | 65 kts | 257° |
| 2026-04-26 11:17 | 51.64589 | 46.04959 | 992 ft | 68 kts | 258° |
| 2026-04-26 11:17 | 51.64565 | 46.04249 | 1237 ft | 63 kts | 261° |
| 2026-04-26 11:17 | 51.64517 | 46.03551 | 1423 ft | 65 kts | 262° |
| 2026-04-26 11:17 | 51.64241 | 46.02882 | 1388 ft | 89 kts | 215° |
| 2026-04-26 11:18 | 51.63566 | 46.02887 | 1416 ft | 100 kts | 188° |
| 2026-04-26 11:18 | 51.62852 | 46.02923 | 1462 ft | 108 kts | 189° |
| 2026-04-26 11:18 | 51.62094 | 46.03114 | 1585 ft | 117 kts | 165° |
| 2026-04-26 11:18 | 51.61651 | 46.04350 | 1481 ft | 135 kts | 96° |
| 2026-04-26 11:19 | 51.61688 | 46.05799 | 1472 ft | 128 kts | 85° |
| 2026-04-26 11:19 | 51.61723 | 46.07244 | 1455 ft | 128 kts | 91° |
| 2026-04-26 11:19 | 51.61700 | 46.08676 | 1496 ft | 126 kts | 91° |
| 2026-04-26 11:19 | 51.61668 | 46.10097 | 1493 ft | 128 kts | 94° |
| 2026-04-26 11:20 | 51.61613 | 46.11505 | 1532 ft | 125 kts | 93° |
| 2026-04-26 11:20 | 51.61592 | 46.12422 | 1538 ft | 123 kts | 94° |
| 2026-04-26 11:20 | 51.61563 | 46.14298 | 1496 ft | 127 kts | 94° |
| 2026-04-26 11:20 | 51.61519 | 46.15730 | 1479 ft | 129 kts | 95° |
| 2026-04-26 11:21 | 51.61468 | 46.17177 | 1460 ft | 130 kts | 98° |
| 2026-04-26 11:21 | 51.61390 | 46.18627 | 1504 ft | 132 kts | 99° |
| 2026-04-26 11:21 | 51.61111 | 46.20027 | 1396 ft | 132 kts | 122° |
| 2026-04-26 11:21 | 51.60740 | 46.21303 | 1430 ft | 119 kts | 143° |
| 2026-04-26 11:22 | 51.60504 | 46.22522 | 1365 ft | 132 kts | 64° |
| 2026-04-26 11:22 | 51.61157 | 46.23317 | 1302 ft | 113 kts | 347° |
| 2026-04-26 11:22 | 51.61893 | 46.23368 | 1346 ft | 104 kts | 347° |
| 2026-04-26 11:22 | 51.62639 | 46.23391 | 1255 ft | 105 kts | 349° |
| 2026-04-26 11:23 | 51.63363 | 46.23449 | 1172 ft | 105 kts | 352° |
| 2026-04-26 11:23 | 51.64143 | 46.23427 | 1058 ft | 110 kts | 348° |
| 2026-04-26 11:23 | 51.64743 | 46.23009 | 998 ft | 93 kts | 286° |
| 2026-04-26 11:23 | 51.64823 | 46.22055 | 1017 ft | 83 kts | 264° |
| 2026-04-26 11:24 | 51.64825 | 46.21131 | 1046 ft | 82 kts | 262° |
| 2026-04-26 11:24 | 51.64796 | 46.20190 | 1084 ft | 85 kts | 263° |
| 2026-04-26 11:24 | 51.64757 | 46.19216 | 1125 ft | 88 kts | 262° |
| 2026-04-26 11:24 | 51.64719 | 46.18230 | 1161 ft | 87 kts | 262° |
| 2026-04-26 11:25 | 51.64669 | 46.17230 | 1196 ft | 93 kts | 262° |
| 2026-04-26 11:25 | 51.64616 | 46.16181 | 1215 ft | 92 kts | 264° |
| 2026-04-26 11:25 | 51.64597 | 46.15222 | 1237 ft | 81 kts | 266° |
| 2026-04-26 11:25 | 51.64604 | 46.14355 | 1262 ft | 75 kts | 266° |
| 2026-04-26 11:26 | 51.64630 | 46.13517 | 1277 ft | 74 kts | 269° |
| 2026-04-26 11:26 | 51.64653 | 46.12703 | 1306 ft | 72 kts | 265° |
| 2026-04-26 11:26 | 51.64629 | 46.11895 | 1316 ft | 75 kts | 263° |
| 2026-04-26 11:26 | 51.64597 | 46.11029 | 1222 ft | 72 kts | 265° |
| 2026-04-26 11:27 | 51.64621 | 46.10310 | 1073 ft | 57 kts | 258° |
| 2026-04-26 11:27 | 51.64572 | 46.09690 | 944 ft | 62 kts | 252° |
| 2026-04-26 11:27 | 51.64562 | 46.08924 | 774 ft | 72 kts | 255° |
| 2026-04-26 11:27 | 51.64536 | 46.08107 | 613 ft | 73 kts | 260° |
| 2026-04-26 11:28 | 51.64519 | 46.07351 | 471 ft | 63 kts | 253° |
| 2026-04-26 11:28 | 51.64504 | 46.06760 | 463 ft | 43 kts | 264° |
| 2026-04-26 11:28 | 51.64509 | 46.06180 | 544 ft | 61 kts | 256° |
| 2026-04-26 11:28 | 51.64564 | 46.05496 | 790 ft | 63 kts | 261° |
| 2026-04-26 11:29 | 51.64640 | 46.04749 | 965 ft | 73 kts | 263° |
| 2026-04-26 11:29 | 51.64694 | 46.03902 | 1122 ft | 77 kts | 262° |
| 2026-04-26 11:29 | 51.64688 | 46.03044 | 1276 ft | 78 kts | 254° |
| 2026-04-26 11:29 | 51.64300 | 46.02465 | 1425 ft | 93 kts | 197° |
| 2026-04-26 11:30 | 51.63621 | 46.02481 | 1427 ft | 99 kts | 192° |
| 2026-04-26 11:30 | 51.63157 | 46.02450 | 1420 ft | 100 kts | 192° |
| 2026-04-26 11:30 | 51.62236 | 46.02565 | 1416 ft | 113 kts | 154° |
| 2026-04-26 11:30 | 51.61914 | 46.03774 | 1416 ft | 125 kts | 95° |
| 2026-04-26 11:31 | 51.61900 | 46.04688 | 1430 ft | 123 kts | 101° |
| 2026-04-26 11:31 | 51.61845 | 46.06074 | 1427 ft | 128 kts | 99° |
| 2026-04-26 11:31 | 51.61808 | 46.07500 | 1440 ft | 128 kts | 98° |
| 2026-04-26 11:31 | 51.61761 | 46.08906 | 1545 ft | 123 kts | 99° |
| 2026-04-26 11:32 | 51.61716 | 46.10306 | 1528 ft | 129 kts | 97° |
| 2026-04-26 11:32 | 51.61673 | 46.11747 | 1501 ft | 128 kts | 96° |
| 2026-04-26 11:32 | 51.61768 | 46.13168 | 1488 ft | 133 kts | 60° |
| 2026-04-26 11:32 | 51.62465 | 46.13985 | 1447 ft | 123 kts | 3° |
| 2026-04-26 11:33 | 51.63251 | 46.14103 | 1304 ft | 106 kts | 352° |
| 2026-04-26 11:33 | 51.63977 | 46.14113 | 1179 ft | 99 kts | 342° |
| 2026-04-26 11:33 | 51.64466 | 46.13552 | 1059 ft | 84 kts | 288° |
| 2026-04-26 11:33 | 51.64616 | 46.12706 | 978 ft | 76 kts | 264° |
| 2026-04-26 11:34 | 51.64625 | 46.11834 | 953 ft | 79 kts | 253° |
| 2026-04-26 11:34 | 51.64560 | 46.10941 | 916 ft | 84 kts | 255° |
| 2026-04-26 11:34 | 51.64575 | 46.09938 | 872 ft | 88 kts | 255° |
| 2026-04-26 11:34 | 51.64564 | 46.09027 | 717 ft | 71 kts | 256° |
| 2026-04-26 11:35 | 51.64541 | 46.08282 | 598 ft | 67 kts | 255° |
| 2026-04-26 11:35 | 51.64519 | 46.07531 | 497 ft | 67 kts | 258° |
| 2026-04-26 11:35 | 51.64507 | 46.06884 | 465 ft | 48 kts | 263° |
| 2026-04-26 11:35 | 51.64506 | 46.06489 | 465 ft | 22 kts | 271° |
| 2026-04-26 11:36 | 51.64502 | 46.06442 | 465 ft | 11 kts | 81° |
| 2026-04-26 11:36 | 51.64507 | 46.06648 | 464 ft | 24 kts | 91° |
| 2026-04-26 11:36 | 51.64543 | 46.06796 | 464 ft | 13 kts | 1° |
| 2026-04-26 11:36 | 51.64602 | 46.06711 | 463 ft | 12 kts | 297° |
| 2026-04-26 11:37 | 51.64645 | 46.06585 | 463 ft | 14 kts | 298° |
| 2026-04-26 11:37 | 51.64696 | 46.06435 | 463 ft | 16 kts | 296° |
| 2026-04-26 11:37 | 51.64758 | 46.06272 | 463 ft | 18 kts | 313° |
| 2026-04-26 11:37 | 51.64813 | 46.06141 | 463 ft | 7 kts | 270° |
| 2026-04-26 11:38 | 51.64804 | 46.06117 | 463 ft | 0 kts | 215° |